createdAt,value
2023-04-18T00:00:37.725Z,38.39
2023-04-18T00:01:37.791Z,38.39
2023-04-18T00:02:37.990Z,38.36
2023-04-18T00:03:38.144Z,38.38
2023-04-18T00:04:37.970Z,38.38
2023-04-18T00:05:37.964Z,38.38
2023-04-18T00:06:37.964Z,38.39
2023-04-18T00:07:38.034Z,38.38
2023-04-18T00:08:38.073Z,38.36
2023-04-18T00:09:38.157Z,38.38
2023-04-18T00:10:38.158Z,38.36
2023-04-18T00:11:38.190Z,38.35
2023-04-18T00:12:38.196Z,38.32
2023-04-18T00:13:38.238Z,38.34
2023-04-18T00:14:38.289Z,38.32
2023-04-18T00:15:38.330Z,38.36
2023-04-18T00:16:38.443Z,38.32
2023-04-18T00:17:38.538Z,38.34
2023-04-18T00:18:38.484Z,38.30
2023-04-18T00:19:38.563Z,38.32
2023-04-18T00:20:38.582Z,38.33
2023-04-18T00:21:38.617Z,38.36
2023-04-18T00:22:38.660Z,38.33
2023-04-18T00:23:38.715Z,38.30
2023-04-18T00:24:38.767Z,38.31
2023-04-18T00:25:38.807Z,38.30
2023-04-18T00:26:38.828Z,38.29
2023-04-18T00:27:38.878Z,38.28
2023-04-18T00:28:38.948Z,38.32
2023-04-18T00:29:38.987Z,38.29
2023-04-18T00:30:39.041Z,38.30
2023-04-18T00:31:39.027Z,38.29
2023-04-18T00:32:39.127Z,38.29
2023-04-18T00:33:39.128Z,38.30
2023-04-18T00:34:39.160Z,38.31
2023-04-18T00:35:39.229Z,38.29
2023-04-18T00:36:39.393Z,38.29
2023-04-18T00:37:39.327Z,38.29
2023-04-18T00:38:39.385Z,38.29
2023-04-18T00:39:39.436Z,38.28
2023-04-18T00:40:39.474Z,38.29
2023-04-18T00:41:39.491Z,38.28
2023-04-18T00:42:39.556Z,38.26
2023-04-18T00:43:39.623Z,38.28
2023-04-18T00:44:39.643Z,38.30
2023-04-18T00:45:39.673Z,38.27
2023-04-18T00:46:39.739Z,38.26
2023-04-18T00:47:39.736Z,38.26
2023-04-18T00:48:39.784Z,38.28
2023-04-18T00:49:39.824Z,38.26
2023-04-18T00:50:39.862Z,38.25
2023-04-18T00:51:39.932Z,38.25
2023-04-18T00:52:40.125Z,38.27
2023-04-18T00:53:40.053Z,38.23
2023-04-18T00:54:40.137Z,38.24
2023-04-18T00:55:40.209Z,38.25
2023-04-18T00:56:40.253Z,38.23
2023-04-18T00:57:40.305Z,38.22
2023-04-18T00:58:40.362Z,38.23
2023-04-18T00:59:40.418Z,38.23
2023-04-18T01:00:40.478Z,38.23
2023-04-18T01:01:40.541Z,38.23
2023-04-18T01:02:40.614Z,38.23
2023-04-18T01:03:40.767Z,38.22
2023-04-18T01:04:40.663Z,38.22
2023-04-18T01:05:40.623Z,38.23
2023-04-18T01:06:40.690Z,38.22
2023-04-18T01:07:40.720Z,38.22
2023-04-18T01:08:40.711Z,38.23
2023-04-18T01:09:40.766Z,38.22
2023-04-18T01:10:40.777Z,38.22
2023-04-18T01:11:40.813Z,38.22
2023-04-18T01:12:40.849Z,38.22
2023-04-18T01:13:40.880Z,38.19
2023-04-18T01:14:40.925Z,38.20
2023-04-18T01:15:41.036Z,38.19
2023-04-18T01:16:41.060Z,38.18
2023-04-18T01:17:41.159Z,38.19
2023-04-18T01:18:41.174Z,38.18
2023-04-18T01:19:41.223Z,38.19
2023-04-18T01:20:41.280Z,38.16
2023-04-18T01:21:41.311Z,38.16
2023-04-18T01:22:41.354Z,38.19
2023-04-18T01:23:41.418Z,38.17
2023-04-18T01:24:41.470Z,38.15
2023-04-18T01:25:41.521Z,38.17
2023-04-18T01:26:41.584Z,38.17
2023-04-18T01:27:41.639Z,38.16
2023-04-18T01:28:41.692Z,38.17
2023-04-18T01:29:41.759Z,38.16
2023-04-18T01:30:41.849Z,38.15
2023-04-18T01:31:42.002Z,38.17
2023-04-18T01:32:42.033Z,38.18
2023-04-18T01:33:42.011Z,38.16
2023-04-18T01:34:42.076Z,38.15
2023-04-18T01:35:42.110Z,38.15
2023-04-18T01:36:42.122Z,38.16
2023-04-18T01:37:42.150Z,38.16
2023-04-18T01:38:42.169Z,38.17
2023-04-18T01:39:42.200Z,38.15
2023-04-18T01:40:42.238Z,38.18
2023-04-18T01:41:42.271Z,38.15
2023-04-18T01:42:42.306Z,38.13
2023-04-18T01:43:42.332Z,38.14
2023-04-18T01:44:42.354Z,38.11
2023-04-18T01:45:42.392Z,38.13
2023-04-18T01:46:42.527Z,38.11
2023-04-18T01:47:42.529Z,38.12
2023-04-18T01:48:42.551Z,38.12
2023-04-18T01:49:42.584Z,38.13
2023-04-18T01:50:42.618Z,38.12
2023-04-18T01:51:42.665Z,38.11
2023-04-18T01:52:42.743Z,38.10
2023-04-18T01:53:42.756Z,38.12
2023-04-18T01:54:42.820Z,38.12
2023-04-18T01:55:42.870Z,38.10
2023-04-18T01:56:42.933Z,38.11
2023-04-18T01:57:42.974Z,38.12
2023-04-18T01:58:43.025Z,38.10
2023-04-18T01:59:43.071Z,38.12
2023-04-18T02:00:43.141Z,38.10
2023-04-18T02:01:43.247Z,38.11
2023-04-18T02:02:43.437Z,38.10
2023-04-18T02:03:43.554Z,38.08
2023-04-18T02:04:43.396Z,38.10
2023-04-18T02:05:43.427Z,38.11
2023-04-18T02:06:43.468Z,38.09
2023-04-18T02:07:43.495Z,38.07
2023-04-18T02:08:43.525Z,38.07
2023-04-18T02:09:43.618Z,38.10
2023-04-18T02:10:43.644Z,38.12
2023-04-18T02:11:43.697Z,38.05
2023-04-18T02:12:43.755Z,38.10
2023-04-18T02:13:43.829Z,38.07
2023-04-18T02:14:43.892Z,38.08
2023-04-18T02:15:43.979Z,38.09
2023-04-18T02:16:44.084Z,38.06
2023-04-18T02:17:44.181Z,38.09
2023-04-18T02:18:44.160Z,38.06
2023-04-18T02:19:44.194Z,38.07
2023-04-18T02:20:44.232Z,38.08
2023-04-18T02:21:44.270Z,38.09
2023-04-18T02:22:44.335Z,38.05
2023-04-18T02:23:44.390Z,38.03
2023-04-18T02:24:44.436Z,38.05
2023-04-18T02:25:44.476Z,38.06
2023-04-18T02:26:44.523Z,38.07
2023-04-18T02:27:44.569Z,38.05
2023-04-18T02:28:44.688Z,38.06
2023-04-18T02:29:44.663Z,38.05
2023-04-18T02:30:44.742Z,38.07
2023-04-18T02:31:44.782Z,38.05
2023-04-18T02:32:44.818Z,38.05
2023-04-18T02:33:44.835Z,38.05
2023-04-18T02:34:44.876Z,38.04
2023-04-18T02:35:44.919Z,38.03
2023-04-18T02:36:44.961Z,38.01
2023-04-18T02:37:45.001Z,38.02
2023-04-18T02:38:45.025Z,38.05
2023-04-18T02:39:45.067Z,38.03
2023-04-18T02:40:45.108Z,38.04
2023-04-18T02:41:45.178Z,38.04
2023-04-18T02:42:45.224Z,38.03
2023-04-18T02:43:45.275Z,38.03
2023-04-18T02:44:45.304Z,38.02
2023-04-18T02:45:45.344Z,38.03
2023-04-18T02:46:45.364Z,38.00
2023-04-18T02:47:54.434Z,38.01
2023-04-18T02:48:46.374Z,38.01
2023-04-18T02:49:45.379Z,38.02
2023-04-18T02:50:45.376Z,38.03
2023-04-18T02:51:45.381Z,38.04
2023-04-18T02:52:45.453Z,38.05
2023-04-18T02:53:45.397Z,37.99
2023-04-18T02:54:45.403Z,38.00
2023-04-18T02:55:45.420Z,38.01
2023-04-18T02:56:45.425Z,38.00
2023-04-18T02:57:45.443Z,37.99
2023-04-18T02:58:45.431Z,38.01
2023-04-18T02:59:45.448Z,38.02
2023-04-18T03:00:45.469Z,38.00
2023-04-18T03:01:45.695Z,37.98
2023-04-18T03:02:45.622Z,37.99
2023-04-18T03:03:45.618Z,38.00
2023-04-18T03:04:45.707Z,38.01
2023-04-18T03:05:45.717Z,37.99
2023-04-18T03:06:45.783Z,37.96
2023-04-18T03:07:45.825Z,37.99
2023-04-18T03:08:45.884Z,37.95
2023-04-18T03:09:45.943Z,37.96
2023-04-18T03:10:46.001Z,37.97
2023-04-18T03:11:46.073Z,37.97
2023-04-18T03:12:46.142Z,37.98
2023-04-18T03:13:46.213Z,37.96
2023-04-18T03:14:46.250Z,37.96
2023-04-18T03:15:46.345Z,37.97
2023-04-18T03:16:46.433Z,37.93
2023-04-18T03:17:46.433Z,37.95
2023-04-18T03:18:46.482Z,37.94
2023-04-18T03:19:46.579Z,37.94
2023-04-18T03:20:46.572Z,37.95
2023-04-18T03:21:46.641Z,37.91
2023-04-18T03:22:46.676Z,37.92
2023-04-18T03:23:46.718Z,37.91
2023-04-18T03:24:46.784Z,37.90
2023-04-18T03:25:46.848Z,37.89
2023-04-18T03:26:46.928Z,37.92
2023-04-18T03:27:47.007Z,37.90
2023-04-18T03:28:47.076Z,37.91
2023-04-18T03:29:47.152Z,37.89
2023-04-18T03:30:47.234Z,37.90
2023-04-18T03:31:47.361Z,37.89
2023-04-18T03:32:47.407Z,37.89
2023-04-18T03:33:47.460Z,37.88
2023-04-18T03:34:47.531Z,37.87
2023-04-18T03:35:47.607Z,37.88
2023-04-18T03:36:48.321Z,37.85
2023-04-18T03:37:47.748Z,37.86
2023-04-18T03:38:47.855Z,37.84
2023-04-18T03:39:47.887Z,37.85
2023-04-18T03:40:47.962Z,37.84
2023-04-18T03:41:48.031Z,37.83
2023-04-18T03:42:48.125Z,37.83
2023-04-18T03:43:48.174Z,37.82
2023-04-18T03:44:48.254Z,37.82
2023-04-18T03:45:48.380Z,37.82
2023-04-18T03:46:48.393Z,37.83
2023-04-18T03:47:48.556Z,37.82
2023-04-18T03:48:48.525Z,37.83
2023-04-18T03:49:48.590Z,37.81
2023-04-18T03:50:48.672Z,37.81
2023-04-18T03:51:48.735Z,37.83
2023-04-18T03:52:48.805Z,37.83
2023-04-18T03:53:48.842Z,37.82
2023-04-18T03:54:48.902Z,37.78
2023-04-18T03:55:48.956Z,37.77
2023-04-18T03:56:49.005Z,37.78
2023-04-18T03:57:49.071Z,37.78
2023-04-18T03:58:49.112Z,37.77
2023-04-18T03:59:49.195Z,37.75
2023-04-18T04:00:49.235Z,37.76
2023-04-18T04:01:49.354Z,37.75
2023-04-18T04:02:49.443Z,37.77
2023-04-18T04:03:49.624Z,37.76
2023-04-18T04:04:49.590Z,37.75
2023-04-18T04:05:49.605Z,37.72
2023-04-18T04:06:49.681Z,37.75
2023-04-18T04:07:49.748Z,37.74
2023-04-18T04:08:49.821Z,37.72
2023-04-18T04:09:49.887Z,37.74
2023-04-18T04:10:50.890Z,37.74
2023-04-18T04:11:50.026Z,37.71
2023-04-18T04:12:50.077Z,37.72
2023-04-18T04:13:50.149Z,37.72
2023-04-18T04:14:50.366Z,37.72
2023-04-18T04:15:50.302Z,37.71
2023-04-18T04:16:50.401Z,37.70
2023-04-18T04:17:50.503Z,37.71
2023-04-18T04:18:50.502Z,37.71
2023-04-18T04:19:50.574Z,37.69
2023-04-18T04:20:50.637Z,37.70
2023-04-18T04:21:50.722Z,37.70
2023-04-18T04:22:50.795Z,37.68
2023-04-18T04:23:50.845Z,37.70
2023-04-18T04:24:50.916Z,37.68
2023-04-18T04:25:50.971Z,37.68
2023-04-18T04:26:51.052Z,37.67
2023-04-18T04:27:51.129Z,37.66
2023-04-18T04:28:51.212Z,37.65
2023-04-18T04:29:51.281Z,37.64
2023-04-18T04:30:51.362Z,37.65
2023-04-18T04:31:51.461Z,37.65
2023-04-18T04:32:51.572Z,37.64
2023-04-18T04:33:51.573Z,37.65
2023-04-18T04:34:51.632Z,37.65
2023-04-18T04:35:51.711Z,37.65
2023-04-18T04:36:51.770Z,37.62
2023-04-18T04:37:51.839Z,37.62
2023-04-18T04:38:51.922Z,37.63
2023-04-18T04:39:51.982Z,37.63
2023-04-18T04:40:52.064Z,37.63
2023-04-18T04:41:52.146Z,37.61
2023-04-18T04:42:52.199Z,37.63
2023-04-18T04:43:52.280Z,37.60
2023-04-18T04:44:52.365Z,37.63
2023-04-18T04:45:52.451Z,37.59
2023-04-18T04:46:52.490Z,37.62
2023-04-18T04:47:52.613Z,37.61
2023-04-18T04:48:53.397Z,37.61
2023-04-18T04:49:52.705Z,37.58
2023-04-18T04:50:52.790Z,37.59
2023-04-18T04:51:52.844Z,37.59
2023-04-18T04:52:52.925Z,37.57
2023-04-18T04:53:52.987Z,37.59
2023-04-18T04:54:53.066Z,37.59
2023-04-18T04:55:53.144Z,37.60
2023-04-18T04:56:53.214Z,37.60
2023-04-18T04:57:53.288Z,37.56
2023-04-18T04:58:53.349Z,37.56
2023-04-18T04:59:53.443Z,37.58
2023-04-18T05:00:53.547Z,37.57
2023-04-18T05:01:53.651Z,37.56
2023-04-18T05:02:53.805Z,37.56
2023-04-18T05:03:53.892Z,37.59
2023-04-18T05:04:53.801Z,37.57
2023-04-18T05:05:53.882Z,37.65
2023-04-18T05:06:53.952Z,37.58
2023-04-18T05:07:54.029Z,37.55
2023-04-18T05:08:54.204Z,37.59
2023-04-18T05:09:54.173Z,37.58
2023-04-18T05:10:54.252Z,37.56
2023-04-18T05:11:54.319Z,37.55
2023-04-18T05:12:54.425Z,37.54
2023-04-18T05:13:54.482Z,37.55
2023-04-18T05:14:54.548Z,37.56
2023-04-18T05:15:54.627Z,37.89
2023-04-18T05:16:54.711Z,38.16
2023-04-18T05:17:54.898Z,38.21
2023-04-18T05:18:54.859Z,38.26
2023-04-18T05:19:54.934Z,38.30
2023-04-18T05:20:55.025Z,38.29
2023-04-18T05:21:55.063Z,38.20
2023-04-18T05:22:55.131Z,38.30
2023-04-18T05:23:55.197Z,38.16
2023-04-18T05:24:55.243Z,38.12
2023-04-18T05:25:55.300Z,38.23
2023-04-18T05:26:55.892Z,38.16
2023-04-18T05:27:55.408Z,38.12
2023-04-18T05:28:55.460Z,38.26
2023-04-18T05:29:55.521Z,38.22
2023-04-18T05:30:55.625Z,38.25
2023-04-18T05:31:55.665Z,38.22
2023-04-18T05:32:55.758Z,38.14
2023-04-18T05:33:56.398Z,37.99
2023-04-18T05:34:55.829Z,37.95
2023-04-18T05:35:55.900Z,38.02
2023-04-18T05:36:55.959Z,38.08
2023-04-18T05:37:56.011Z,37.70
2023-04-18T05:38:56.078Z,37.78
2023-04-18T05:39:56.614Z,37.79
2023-04-18T05:40:56.249Z,37.84
2023-04-18T05:41:56.269Z,38.16
2023-04-18T05:42:56.348Z,38.22
2023-04-18T05:44:04.873Z,38.23
2023-04-18T05:44:57.411Z,38.20
2023-04-18T05:45:57.746Z,38.16
2023-04-18T05:46:56.431Z,38.16
2023-04-18T05:47:56.495Z,38.10
2023-04-18T05:48:56.421Z,38.08
2023-04-18T05:49:56.421Z,38.03
2023-04-18T05:50:56.436Z,38.01
2023-04-18T05:51:56.445Z,37.98
2023-04-18T05:52:56.468Z,37.96
2023-04-18T05:53:56.535Z,37.95
2023-04-18T05:54:56.596Z,37.93
2023-04-18T05:55:56.666Z,37.92
2023-04-18T05:56:56.737Z,37.95
2023-04-18T05:57:56.814Z,37.94
2023-04-18T05:58:56.866Z,37.94
2023-04-18T05:59:56.935Z,38.16
2023-04-18T06:00:57.025Z,37.80
2023-04-18T06:01:57.122Z,37.82
2023-04-18T06:02:57.983Z,37.90
2023-04-18T06:03:57.453Z,37.96
2023-04-18T06:04:57.392Z,38.15
2023-04-18T06:05:57.534Z,38.18
2023-04-18T06:06:57.441Z,38.14
2023-04-18T06:07:57.508Z,38.09
2023-04-18T06:08:57.576Z,38.07
2023-04-18T06:09:57.654Z,38.04
2023-04-18T06:10:57.713Z,37.99
2023-04-18T06:11:57.796Z,37.96
2023-04-18T06:12:57.854Z,37.98
2023-04-18T06:13:57.910Z,37.94
2023-04-18T06:14:57.973Z,37.94
2023-04-18T06:15:58.113Z,37.91
2023-04-18T06:16:58.113Z,37.88
2023-04-18T06:17:58.235Z,37.88
2023-04-18T06:19:00.952Z,37.88
2023-04-18T06:19:58.269Z,37.85
2023-04-18T06:20:58.265Z,37.87
2023-04-18T06:21:58.307Z,37.84
2023-04-18T06:22:58.895Z,38.04
2023-04-18T06:23:59.433Z,38.42
2023-04-18T06:24:59.389Z,38.49
2023-04-18T06:25:58.526Z,38.48
2023-04-18T06:26:59.400Z,38.62
2023-04-18T06:27:58.616Z,38.80
2023-04-18T06:28:58.750Z,38.46
2023-04-18T06:29:58.800Z,38.34
2023-04-18T06:30:58.824Z,38.54
2023-04-18T06:31:58.938Z,38.49
2023-04-18T06:32:59.026Z,38.70
2023-04-18T06:33:59.024Z,38.79
2023-04-18T06:34:59.073Z,38.93
2023-04-18T06:35:59.144Z,38.91
2023-04-18T06:36:59.178Z,38.87
2023-04-18T06:37:59.314Z,38.89
2023-04-18T06:38:59.305Z,38.87
2023-04-18T06:39:59.373Z,38.75
2023-04-18T06:40:59.421Z,38.70
2023-04-18T06:41:59.472Z,38.68
2023-04-18T06:42:59.540Z,38.67
2023-04-18T06:44:04.058Z,38.66
2023-04-18T06:45:00.695Z,38.66
2023-04-18T06:45:59.646Z,38.69
2023-04-18T06:46:59.607Z,38.72
2023-04-18T06:47:59.664Z,38.74
2023-04-18T06:48:59.625Z,38.63
2023-04-18T06:49:59.642Z,38.74
2023-04-18T06:50:59.634Z,38.74
2023-04-18T06:51:59.647Z,38.70
2023-04-18T06:52:59.641Z,38.67
2023-04-18T06:53:59.693Z,38.65
2023-04-18T06:54:59.742Z,38.64
2023-04-18T06:55:59.797Z,38.62
2023-04-18T06:56:59.858Z,38.60
2023-04-18T06:57:59.920Z,38.61
2023-04-18T06:58:59.999Z,38.59
2023-04-18T07:00:00.068Z,38.58
2023-04-18T07:01:00.185Z,38.62
2023-04-18T07:02:00.250Z,38.60
2023-04-18T07:03:00.426Z,38.61
2023-04-18T07:04:00.485Z,38.61
2023-04-18T07:05:00.395Z,38.61
2023-04-18T07:06:00.473Z,38.58
2023-04-18T07:07:00.526Z,38.58
2023-04-18T07:08:00.595Z,38.51
2023-04-18T07:09:00.663Z,38.47
2023-04-18T07:10:00.733Z,38.46
2023-04-18T07:11:00.793Z,38.45
2023-04-18T07:12:00.877Z,38.45
2023-04-18T07:13:00.931Z,38.44
2023-04-18T07:14:01.017Z,38.57
2023-04-18T07:15:01.895Z,39.11
2023-04-18T07:16:01.155Z,39.37
2023-04-18T07:17:02.899Z,39.56
2023-04-18T07:18:02.695Z,39.96
2023-04-18T07:19:01.455Z,40.83
2023-04-18T07:20:01.421Z,40.91
2023-04-18T07:21:01.893Z,41.80
2023-04-18T07:22:01.419Z,41.60
2023-04-18T07:23:01.495Z,41.44
2023-04-18T07:24:02.311Z,41.21
2023-04-18T07:25:02.439Z,41.31
2023-04-18T07:26:01.608Z,41.57
2023-04-18T07:27:02.456Z,40.68
2023-04-18T07:28:04.508Z,40.15
2023-04-18T07:29:01.776Z,39.46
2023-04-18T07:30:02.750Z,39.30
2023-04-18T07:31:02.336Z,38.81
2023-04-18T07:32:01.764Z,38.79
2023-04-18T07:33:03.407Z,38.94
2023-04-18T07:34:01.739Z,39.33
2023-04-18T07:35:01.755Z,39.75
2023-04-18T07:36:01.768Z,39.82
2023-04-18T07:37:01.747Z,39.82
2023-04-18T07:38:01.758Z,39.86
2023-04-18T07:39:01.766Z,39.89
2023-04-18T07:40:01.797Z,39.87
2023-04-18T07:41:01.890Z,39.80
2023-04-18T07:42:01.902Z,39.83
2023-04-18T07:43:01.965Z,39.62
2023-04-18T07:44:02.075Z,39.60
2023-04-18T07:45:02.177Z,39.58
2023-04-18T07:46:02.203Z,39.62
2023-04-18T07:47:03.001Z,39.61
2023-04-18T07:48:02.354Z,39.60
2023-04-18T07:49:02.368Z,39.57
2023-04-18T07:50:02.940Z,39.57
2023-04-18T07:51:03.360Z,39.54
2023-04-18T07:52:02.362Z,39.48
2023-04-18T07:53:02.395Z,39.48
2023-04-18T07:54:02.384Z,39.44
2023-04-18T07:55:03.401Z,39.43
2023-04-18T07:56:02.375Z,39.41
2023-04-18T07:57:03.324Z,39.39
2023-04-18T07:58:02.373Z,39.37
2023-04-18T07:59:02.891Z,39.38
2023-04-18T08:00:04.189Z,39.39
2023-04-18T08:01:02.922Z,39.38
2023-04-18T08:02:02.437Z,39.37
2023-04-18T08:03:02.540Z,39.39
2023-04-18T08:04:02.622Z,39.38
2023-04-18T08:05:02.900Z,39.40
2023-04-18T08:06:02.476Z,39.40
2023-04-18T08:07:02.434Z,39.40
2023-04-18T08:08:06.362Z,39.38
2023-04-18T08:09:02.422Z,39.35
2023-04-18T08:10:02.427Z,39.41
2023-04-18T08:11:02.441Z,39.72
2023-04-18T08:12:02.417Z,39.79
2023-04-18T08:13:02.897Z,39.86
2023-04-18T08:14:02.442Z,40.25
2023-04-18T08:15:02.440Z,40.23
2023-04-18T08:16:02.506Z,40.38
2023-04-18T08:17:04.415Z,40.98
2023-04-18T08:18:02.524Z,41.56
2023-04-18T08:19:02.459Z,42.07
2023-04-18T08:20:02.468Z,42.33
2023-04-18T08:21:02.861Z,42.51
2023-04-18T08:22:02.476Z,42.48
2023-04-18T08:23:08.581Z,42.37
2023-04-18T08:24:02.479Z,42.09
2023-04-18T08:25:05.386Z,42.18
2023-04-18T08:26:02.486Z,41.71
2023-04-18T08:27:03.398Z,41.70
2023-04-18T08:28:04.531Z,41.73
2023-04-18T08:29:02.564Z,41.41
2023-04-18T08:30:02.500Z,40.93
2023-04-18T08:31:04.413Z,40.81
2023-04-18T08:32:02.593Z,40.97
2023-04-18T08:33:02.558Z,40.91
2023-04-18T08:34:04.499Z,40.92
2023-04-18T08:35:02.818Z,40.73
2023-04-18T08:36:02.830Z,40.79
2023-04-18T08:37:02.873Z,40.53
2023-04-18T08:38:02.931Z,40.36
2023-04-18T08:39:02.940Z,40.26
2023-04-18T08:40:02.951Z,40.01
2023-04-18T08:41:03.030Z,39.96
2023-04-18T08:42:03.049Z,39.87
2023-04-18T08:43:06.419Z,39.92
2023-04-18T08:44:03.069Z,39.93
2023-04-18T08:45:03.062Z,39.92
2023-04-18T08:46:03.063Z,39.80
2023-04-18T08:47:04.913Z,39.80
2023-04-18T08:48:03.191Z,39.73
2023-04-18T08:49:03.054Z,39.71
2023-04-18T08:50:03.063Z,39.71
2023-04-18T08:51:03.069Z,39.69
2023-04-18T08:52:03.076Z,39.63
2023-04-18T08:53:03.999Z,39.62
2023-04-18T08:54:03.064Z,39.58
2023-04-18T08:55:03.079Z,39.54
2023-04-18T08:56:05.971Z,39.54
2023-04-18T08:57:05.968Z,39.51
2023-04-18T08:58:03.116Z,39.52
2023-04-18T08:59:03.120Z,39.47
2023-04-18T09:00:03.091Z,39.40
2023-04-18T09:01:03.266Z,39.39
2023-04-18T09:02:03.163Z,39.31
2023-04-18T09:03:03.298Z,39.33
2023-04-18T09:04:03.193Z,39.27
2023-04-18T09:05:09.111Z,39.25
2023-04-18T09:06:03.176Z,39.24
2023-04-18T09:07:03.109Z,39.26
2023-04-18T09:08:05.887Z,39.24
2023-04-18T09:09:03.264Z,39.26
2023-04-18T09:10:03.122Z,39.28
2023-04-18T09:11:03.139Z,39.42
2023-04-18T09:12:03.194Z,39.25
2023-04-18T09:13:03.407Z,39.23
2023-04-18T09:14:03.909Z,39.21
2023-04-18T09:15:03.400Z,39.20
2023-04-18T09:16:03.155Z,39.36
2023-04-18T09:17:03.197Z,39.91
2023-04-18T09:18:03.471Z,39.91
2023-04-18T09:19:04.225Z,39.92
2023-04-18T09:20:03.194Z,39.89
2023-04-18T09:21:03.899Z,39.97
2023-04-18T09:22:03.850Z,40.47
2023-04-18T09:23:03.893Z,40.56
2023-04-18T09:24:03.223Z,40.30
2023-04-18T09:25:03.359Z,40.37
2023-04-18T09:26:03.263Z,40.05
2023-04-18T09:27:03.284Z,40.13
2023-04-18T09:28:03.265Z,40.10
2023-04-18T09:29:03.305Z,40.04
2023-04-18T09:30:03.341Z,39.88
2023-04-18T09:31:03.336Z,39.75
2023-04-18T09:32:03.315Z,39.52
2023-04-18T09:33:03.311Z,39.60
2023-04-18T09:34:03.353Z,39.34
2023-04-18T09:35:04.571Z,39.29
2023-04-18T09:36:03.492Z,36.90
2023-04-18T09:37:03.593Z,34.81
2023-04-18T09:38:03.562Z,34.16
2023-04-18T09:39:03.563Z,34.04
2023-04-18T09:40:03.559Z,33.83
2023-04-18T09:41:03.688Z,32.83
2023-04-18T09:42:03.567Z,32.85
2023-04-18T09:43:03.564Z,33.02
2023-04-18T09:44:03.586Z,32.61
2023-04-18T09:45:03.620Z,32.87
2023-04-18T09:46:07.420Z,32.93
2023-04-18T09:47:03.610Z,32.96
2023-04-18T09:48:03.731Z,32.99
2023-04-18T09:49:03.642Z,32.80
2023-04-18T09:50:03.961Z,33.20
2023-04-18T09:51:04.420Z,33.35
2023-04-18T09:52:03.658Z,33.45
2023-04-18T09:53:03.659Z,33.74
2023-04-18T09:54:03.662Z,34.92
2023-04-18T09:55:03.682Z,35.09
2023-04-18T09:56:04.690Z,35.17
2023-04-18T09:57:03.874Z,35.26
2023-04-18T09:58:03.820Z,35.41
2023-04-18T09:59:03.672Z,35.48
2023-04-18T10:00:03.694Z,35.61
2023-04-18T10:01:03.760Z,35.70
2023-04-18T10:02:04.496Z,35.80
2023-04-18T10:03:03.744Z,35.89
2023-04-18T10:04:03.766Z,35.88
2023-04-18T10:05:03.808Z,35.90
2023-04-18T10:06:04.454Z,35.89
2023-04-18T10:07:03.895Z,35.86
2023-04-18T10:08:03.955Z,35.94
2023-04-18T10:09:04.012Z,36.19
2023-04-18T10:10:04.097Z,36.28
2023-04-18T10:11:04.079Z,36.48
2023-04-18T10:12:04.088Z,36.26
2023-04-18T10:13:04.162Z,36.15
2023-04-18T10:14:04.854Z,36.50
2023-04-18T10:15:04.147Z,36.94
2023-04-18T10:16:04.145Z,37.26
2023-04-18T10:17:04.912Z,37.20
2023-04-18T10:18:06.533Z,37.36
2023-04-18T10:19:04.157Z,37.29
2023-04-18T10:20:04.190Z,37.40
2023-04-18T10:21:04.294Z,37.41
2023-04-18T10:22:04.329Z,37.19
2023-04-18T10:23:04.394Z,37.12
2023-04-18T10:24:05.387Z,37.20
2023-04-18T10:25:04.494Z,37.18
2023-04-18T10:26:06.462Z,37.21
2023-04-18T10:27:04.400Z,37.27
2023-04-18T10:28:04.416Z,37.36
2023-04-18T10:29:04.415Z,37.40
2023-04-18T10:30:04.421Z,37.44
2023-04-18T10:31:04.966Z,37.51
2023-04-18T10:32:04.445Z,37.50
2023-04-18T10:34:05.905Z,37.56
2023-04-18T10:35:05.593Z,37.62
2023-04-18T10:36:04.579Z,37.62
2023-04-18T10:37:04.585Z,37.60
2023-04-18T10:38:04.589Z,37.66
2023-04-18T10:39:04.590Z,37.68
2023-04-18T10:40:04.577Z,37.70
2023-04-18T10:41:04.579Z,37.72
2023-04-18T10:42:04.593Z,37.79
2023-04-18T10:43:04.624Z,37.80
2023-04-18T10:44:05.364Z,37.75
2023-04-18T10:45:04.769Z,37.79
2023-04-18T10:46:04.855Z,37.80
2023-04-18T10:47:04.947Z,37.76
2023-04-18T10:48:05.037Z,37.80
2023-04-18T10:49:05.083Z,37.76
2023-04-18T10:50:06.804Z,37.90
2023-04-18T10:51:05.206Z,37.82
2023-04-18T10:52:05.264Z,37.88
2023-04-18T10:53:05.332Z,37.69
2023-04-18T10:54:05.370Z,37.69
2023-04-18T10:55:05.462Z,37.71
2023-04-18T10:56:05.490Z,37.71
2023-04-18T10:57:05.549Z,37.70
2023-04-18T10:58:05.609Z,37.67
2023-04-18T10:59:05.631Z,37.87
2023-04-18T11:00:05.651Z,37.86
2023-04-18T11:01:06.022Z,37.95
2023-04-18T11:02:05.794Z,38.05
2023-04-18T11:03:05.977Z,38.25
2023-04-18T11:04:06.005Z,38.01
2023-04-18T11:05:05.848Z,38.34
2023-04-18T11:06:05.958Z,38.74
2023-04-18T11:07:05.925Z,38.45
2023-04-18T11:08:05.903Z,38.33
2023-04-18T11:09:05.908Z,38.23
2023-04-18T11:10:05.911Z,38.21
2023-04-18T11:11:05.944Z,38.14
2023-04-18T11:12:05.997Z,38.09
2023-04-18T11:13:06.088Z,38.06
2023-04-18T11:14:06.133Z,38.05
2023-04-18T11:15:06.195Z,38.05
2023-04-18T11:16:06.298Z,38.61
2023-04-18T11:17:06.336Z,38.39
2023-04-18T11:18:06.445Z,38.31
2023-04-18T11:19:06.480Z,38.31
2023-04-18T11:20:06.559Z,38.39
2023-04-18T11:21:06.627Z,38.57
2023-04-18T11:22:06.675Z,38.80
2023-04-18T11:23:06.773Z,39.03
2023-04-18T11:24:06.816Z,39.65
2023-04-18T11:25:06.860Z,40.24
2023-04-18T11:26:06.950Z,40.32
2023-04-18T11:27:06.990Z,40.45
2023-04-18T11:28:07.045Z,40.98
2023-04-18T11:29:07.127Z,41.00
2023-04-18T11:30:07.152Z,40.94
2023-04-18T11:31:07.213Z,40.82
2023-04-18T11:32:07.347Z,40.64
2023-04-18T11:33:07.726Z,40.19
2023-04-18T11:34:07.443Z,40.20
2023-04-18T11:35:07.488Z,40.41
2023-04-18T11:36:07.513Z,40.58
2023-04-18T11:37:07.591Z,40.62
2023-04-18T11:38:07.650Z,41.62
2023-04-18T11:39:07.680Z,41.18
2023-04-18T11:40:07.725Z,41.47
2023-04-18T11:41:07.842Z,40.39
2023-04-18T11:42:07.856Z,39.94
2023-04-18T11:43:07.921Z,39.65
2023-04-18T11:44:07.998Z,39.43
2023-04-18T11:45:08.046Z,39.24
2023-04-18T11:46:08.159Z,39.14
2023-04-18T11:47:08.185Z,39.40
2023-04-18T11:48:08.287Z,39.29
2023-04-18T11:49:08.467Z,39.51
2023-04-18T11:50:08.376Z,39.58
2023-04-18T11:51:08.441Z,39.22
2023-04-18T11:52:08.520Z,39.11
2023-04-18T11:53:08.612Z,39.07
2023-04-18T11:54:08.631Z,39.21
2023-04-18T11:55:08.696Z,39.39
2023-04-18T11:56:08.769Z,39.32
2023-04-18T11:57:08.833Z,39.33
2023-04-18T11:58:08.902Z,39.23
2023-04-18T11:59:08.994Z,39.23
2023-04-18T12:00:09.033Z,39.28
2023-04-18T12:01:09.091Z,39.43
2023-04-18T12:02:16.025Z,39.27
2023-04-18T12:03:13.342Z,39.29
2023-04-18T12:04:09.386Z,39.35
2023-04-18T12:05:09.610Z,39.31
2023-04-18T12:06:09.313Z,39.19
2023-04-18T12:07:09.162Z,38.99
2023-04-18T12:08:09.177Z,38.95
2023-04-18T12:09:09.165Z,38.88
2023-04-18T12:10:09.159Z,38.89
2023-04-18T12:11:09.167Z,38.81
2023-04-18T12:12:09.166Z,38.79
2023-04-18T12:13:09.183Z,38.84
2023-04-18T12:14:09.175Z,38.77
2023-04-18T12:15:09.249Z,38.75
2023-04-18T12:16:09.342Z,38.74
2023-04-18T12:17:09.328Z,38.73
2023-04-18T12:18:09.446Z,38.71
2023-04-18T12:19:09.471Z,38.69
2023-04-18T12:20:09.529Z,38.72
2023-04-18T12:21:09.698Z,38.68
2023-04-18T12:22:09.648Z,38.71
2023-04-18T12:23:09.698Z,38.78
2023-04-18T12:24:09.783Z,38.75
2023-04-18T12:25:09.835Z,38.75
2023-04-18T12:26:09.911Z,38.77
2023-04-18T12:27:09.964Z,38.80
2023-04-18T12:28:10.033Z,38.78
2023-04-18T12:29:10.106Z,38.82
2023-04-18T12:30:10.187Z,38.81
2023-04-18T12:31:10.249Z,38.82
2023-04-18T12:32:10.325Z,38.77
2023-04-18T12:33:10.354Z,38.82
2023-04-18T12:34:10.411Z,38.87
2023-04-18T12:35:10.480Z,38.83
2023-04-18T12:36:10.557Z,38.79
2023-04-18T12:37:10.636Z,38.87
2023-04-18T12:38:10.649Z,38.84
2023-04-18T12:39:10.733Z,38.85
2023-04-18T12:40:10.781Z,38.84
2023-04-18T12:41:10.846Z,38.85
2023-04-18T12:42:10.917Z,38.84
2023-04-18T12:43:10.954Z,38.83
2023-04-18T12:44:11.115Z,38.88
2023-04-18T12:45:11.079Z,38.84
2023-04-18T12:46:11.182Z,38.82
2023-04-18T12:47:11.435Z,38.84
2023-04-18T12:48:11.251Z,38.87
2023-04-18T12:49:11.319Z,38.82
2023-04-18T12:50:11.677Z,38.82
2023-04-18T12:51:11.429Z,38.81
2023-04-18T12:52:11.492Z,38.76
2023-04-18T12:53:11.702Z,38.82
2023-04-18T12:54:11.752Z,38.78